Time;durP1;ratioP1;P1;durP2;ratioP2;P2;SDS_P1;SDS_P2;PMS_P1;PMS_P2;Temp;Humidity;BMP_temperature;BMP_pressure;BME280_temperature;BME280_humidity;BME280_pressure;Samples;Min_cycle;Max_cycle;Signal;HPM_P1;HPM_P2
2021/02/18 00:00:31;;;;;;;5.099999;3.9;;;;;;;-1.06;100;95609.3;;;;
2021/02/18 00:01:32;;;;;;;5.099999;3.9;;;;;;;-1.06;100;95609.3;;;;
2021/02/18 00:02:32;;;;;;;5.099999;3.9;;;;;;;-1.06;100;95609.3;;;;
2021/02/18 00:03:33;;;;;;;5.099999;3.9;;;;;;;-1.06;100;95609.3;;;;
2021/02/18 00:04:35;;;;;;;5.099999;3.9;;;;;;;-1.06;100;95609.3;;;;
2021/02/18 00:05:35;;;;;;;5.099999;3.9;;;;;;;-1.06;100;95609.3;;;;
2021/02/18 00:06:36;;;;;;;5.099999;3.9;;;;;;;-1.06;100;95609.3;;;;
2021/02/18 00:07:37;;;;;;;5.099999;3.9;;;;;;;-1.06;100;95609.3;;;;
2021/02/18 00:08:37;;;;;;;5.099999;3.9;;;;;;;-1.06;100;95609.3;;;;
2021/02/18 00:09:38;;;;;;;5.099999;3.9;;;;;;;-1.06;100;95609.3;;;;
2021/02/18 00:10:38;;;;;;;5.95;3.85;;;;;;;-1.13;100;95596.36;;;;
2021/02/18 00:11:39;;;;;;;5.95;3.85;;;;;;;-1.13;100;95596.36;;;;
2021/02/18 00:12:40;;;;;;;5.95;3.85;;;;;;;-1.13;100;95596.36;;;;
2021/02/18 00:13:40;;;;;;;5.95;3.85;;;;;;;-1.13;100;95596.36;;;;
2021/02/18 00:14:40;;;;;;;5.95;3.85;;;;;;;-1.13;100;95596.36;;;;
2021/02/18 00:15:41;;;;;;;5.95;3.85;;;;;;;-1.13;100;95596.36;;;;
2021/02/18 00:16:42;;;;;;;5.95;3.85;;;;;;;-1.13;100;95596.36;;;;
2021/02/18 00:17:42;;;;;;;5.95;3.85;;;;;;;-1.13;100;95596.36;;;;
2021/02/18 00:18:43;;;;;;;5.95;3.85;;;;;;;-1.13;100;95596.36;;;;
2021/02/18 00:19:43;;;;;;;5.95;3.85;;;;;;;-1.13;100;95596.36;;;;
2021/02/18 00:20:44;;;;;;;5.95;3.85;;;;;;;-1.13;100;95596.36;;;;
2021/02/18 00:21:44;;;;;;;3.7;3;;;;;;;-1.2;100;95582.5;;;;
2021/02/18 00:22:45;;;;;;;3.7;3;;;;;;;-1.2;100;95582.5;;;;
2021/02/18 00:23:45;;;;;;;3.7;3;;;;;;;-1.2;100;95582.5;;;;
2021/02/18 00:24:46;;;;;;;3.7;3;;;;;;;-1.2;100;95582.5;;;;
2021/02/18 00:25:47;;;;;;;3.7;3;;;;;;;-1.2;100;95582.5;;;;
2021/02/18 00:26:48;;;;;;;3.7;3;;;;;;;-1.2;100;95582.5;;;;
2021/02/18 00:27:48;;;;;;;3.7;3;;;;;;;-1.2;100;95582.5;;;;
2021/02/18 00:28:48;;;;;;;3.7;3;;;;;;;-1.2;100;95582.5;;;;
2021/02/18 00:29:49;;;;;;;3.7;3;;;;;;;-1.2;100;95582.5;;;;
2021/02/18 00:30:49;;;;;;;3.7;3;;;;;;;-1.2;100;95582.5;;;;
2021/02/18 00:31:50;;;;;;;3.7;3;;;;;;;-1.2;100;95582.5;;;;
2021/02/18 00:32:51;;;;;;;3.75;2.95;;;;;;;-1.33;100;95563.16;;;;
2021/02/18 00:33:51;;;;;;;3.75;2.95;;;;;;;-1.33;100;95563.16;;;;
2021/02/18 00:34:53;;;;;;;3.75;2.95;;;;;;;-1.33;100;95563.16;;;;
2021/02/18 00:35:54;;;;;;;3.75;2.95;;;;;;;-1.33;100;95563.16;;;;
2021/02/18 00:36:54;;;;;;;3.75;2.95;;;;;;;-1.33;100;95563.16;;;;
2021/02/18 00:37:55;;;;;;;3.75;2.95;;;;;;;-1.33;100;95563.16;;;;
2021/02/18 00:38:56;;;;;;;3.75;2.95;;;;;;;-1.33;100;95563.16;;;;
2021/02/18 00:39:56;;;;;;;3.75;2.95;;;;;;;-1.33;100;95563.16;;;;
2021/02/18 00:40:57;;;;;;;3.75;2.95;;;;;;;-1.33;100;95563.16;;;;
2021/02/18 00:41:57;;;;;;;3.75;2.95;;;;;;;-1.33;100;95563.16;;;;
2021/02/18 00:42:58;;;;;;;4.450001;2.95;;;;;;;-1.43;100;95566.39;;;;
2021/02/18 00:43:59;;;;;;;4.450001;2.95;;;;;;;-1.43;100;95566.39;;;;
2021/02/18 00:44:59;;;;;;;4.450001;2.95;;;;;;;-1.43;100;95566.39;;;;
2021/02/18 00:46:00;;;;;;;4.450001;2.95;;;;;;;-1.43;100;95566.39;;;;
2021/02/18 00:47:01;;;;;;;4.450001;2.95;;;;;;;-1.43;100;95566.39;;;;
2021/02/18 00:48:01;;;;;;;4.450001;2.95;;;;;;;-1.43;100;95566.39;;;;
2021/02/18 00:49:02;;;;;;;4.450001;2.95;;;;;;;-1.43;100;95566.39;;;;
2021/02/18 00:50:03;;;;;;;4.450001;2.95;;;;;;;-1.43;100;95566.39;;;;
2021/02/18 00:51:08;;;;;;;4.450001;2.95;;;;;;;-1.43;100;95566.39;;;;
2021/02/18 00:52:09;;;;;;;4.450001;2.95;;;;;;;-1.43;100;95566.39;;;;
2021/02/18 00:53:10;;;;;;;4.450001;2.95;;;;;;;-1.43;100;95566.39;;;;
2021/02/18 00:54:10;;;;;;;3.95;2.8;;;;;;;-1.53;100;95547.56;;;;
2021/02/18 00:55:11;;;;;;;3.95;2.8;;;;;;;-1.53;100;95547.56;;;;
2021/02/18 00:56:12;;;;;;;3.95;2.8;;;;;;;-1.53;100;95547.56;;;;
2021/02/18 00:57:12;;;;;;;3.95;2.8;;;;;;;-1.53;100;95547.56;;;;
2021/02/18 00:58:13;;;;;;;3.95;2.8;;;;;;;-1.53;100;95547.56;;;;
2021/02/18 00:59:14;;;;;;;3.95;2.8;;;;;;;-1.53;100;95547.56;;;;
2021/02/18 01:00:15;;;;;;;3.95;2.8;;;;;;;-1.53;100;95547.56;;;;
2021/02/18 01:01:18;;;;;;;3.95;2.8;;;;;;;-1.53;100;95547.56;;;;
2021/02/18 01:02:19;;;;;;;3.95;2.8;;;;;;;-1.53;100;95547.56;;;;
2021/02/18 01:03:19;;;;;;;3.95;2.8;;;;;;;-1.53;100;95547.56;;;;
2021/02/18 01:04:21;;;;;;;4.8;2.8;;;;;;;-1.52;100;95541.69;;;;
2021/02/18 01:05:22;;;;;;;4.8;2.8;;;;;;;-1.52;100;95541.69;;;;
2021/02/18 01:06:22;;;;;;;4.8;2.8;;;;;;;-1.52;100;95541.69;;;;
2021/02/18 01:07:23;;;;;;;4.8;2.8;;;;;;;-1.52;100;95541.69;;;;
2021/02/18 01:08:23;;;;;;;4.8;2.8;;;;;;;-1.52;100;95541.69;;;;
2021/02/18 01:09:24;;;;;;;4.8;2.8;;;;;;;-1.52;100;95541.69;;;;
2021/02/18 01:10:26;;;;;;;4.8;2.8;;;;;;;-1.52;100;95541.69;;;;
2021/02/18 01:11:29;;;;;;;4.8;2.8;;;;;;;-1.52;100;95541.69;;;;
2021/02/18 01:12:29;;;;;;;4.8;2.8;;;;;;;-1.52;100;95541.69;;;;
2021/02/18 01:13:30;;;;;;;4.8;2.8;;;;;;;-1.52;100;95541.69;;;;
2021/02/18 01:14:30;;;;;;;4.8;2.8;;;;;;;-1.52;100;95541.69;;;;
2021/02/18 01:15:31;;;;;;;4.25;2.8;;;;;;;-1.52;100;95540.37;;;;
2021/02/18 01:16:34;;;;;;;4.25;2.8;;;;;;;-1.52;100;95540.37;;;;
2021/02/18 01:17:35;;;;;;;4.25;2.8;;;;;;;-1.52;100;95540.37;;;;
2021/02/18 01:18:35;;;;;;;4.25;2.8;;;;;;;-1.52;100;95540.37;;;;
2021/02/18 01:19:36;;;;;;;4.25;2.8;;;;;;;-1.52;100;95540.37;;;;
2021/02/18 01:20:36;;;;;;;4.25;2.8;;;;;;;-1.52;100;95540.37;;;;
2021/02/18 01:21:37;;;;;;;4.25;2.8;;;;;;;-1.52;100;95540.37;;;;
2021/02/18 01:22:37;;;;;;;4.25;2.8;;;;;;;-1.52;100;95540.37;;;;
2021/02/18 01:23:38;;;;;;;4.25;2.8;;;;;;;-1.52;100;95540.37;;;;
2021/02/18 01:24:39;;;;;;;4.25;2.8;;;;;;;-1.52;100;95540.37;;;;
2021/02/18 01:25:39;;;;;;;5.5;2.6;;;;;;;-1.6;100;95538.98;;;;
2021/02/18 01:26:40;;;;;;;5.5;2.6;;;;;;;-1.6;100;95538.98;;;;
2021/02/18 01:27:41;;;;;;;5.5;2.6;;;;;;;-1.6;100;95538.98;;;;
2021/02/18 01:28:41;;;;;;;5.5;2.6;;;;;;;-1.6;100;95538.98;;;;
2021/02/18 01:29:41;;;;;;;5.5;2.6;;;;;;;-1.6;100;95538.98;;;;
2021/02/18 01:30:42;;;;;;;5.5;2.6;;;;;;;-1.6;100;95538.98;;;;
2021/02/18 01:31:42;;;;;;;5.5;2.6;;;;;;;-1.6;100;95538.98;;;;
2021/02/18 01:32:43;;;;;;;5.5;2.6;;;;;;;-1.6;100;95538.98;;;;
2021/02/18 01:33:43;;;;;;;5.5;2.6;;;;;;;-1.6;100;95538.98;;;;
2021/02/18 01:34:44;;;;;;;5.5;2.6;;;;;;;-1.6;100;95538.98;;;;
2021/02/18 01:35:44;;;;;;;5.5;2.6;;;;;;;-1.6;100;95538.98;;;;
2021/02/18 01:36:44;;;;;;;3.95;2.7;;;;;;;-1.66;100;95536.13;;;;
2021/02/18 01:37:45;;;;;;;3.95;2.7;;;;;;;-1.66;100;95536.13;;;;
2021/02/18 01:38:45;;;;;;;3.95;2.7;;;;;;;-1.66;100;95536.13;;;;
2021/02/18 01:39:46;;;;;;;3.95;2.7;;;;;;;-1.66;100;95536.13;;;;
2021/02/18 01:40:46;;;;;;;3.95;2.7;;;;;;;-1.66;100;95536.13;;;;
2021/02/18 01:41:47;;;;;;;3.95;2.7;;;;;;;-1.66;100;95536.13;;;;
2021/02/18 01:42:47;;;;;;;3.95;2.7;;;;;;;-1.66;100;95536.13;;;;
2021/02/18 01:43:48;;;;;;;3.95;2.7;;;;;;;-1.66;100;95536.13;;;;
2021/02/18 01:44:49;;;;;;;3.95;2.7;;;;;;;-1.66;100;95536.13;;;;
2021/02/18 01:45:49;;;;;;;3.95;2.7;;;;;;;-1.66;100;95536.13;;;;
2021/02/18 01:46:50;;;;;;;3;2.55;;;;;;;-1.71;100;95538.84;;;;
2021/02/18 01:47:51;;;;;;;3;2.55;;;;;;;-1.71;100;95538.84;;;;
2021/02/18 01:48:52;;;;;;;3;2.55;;;;;;;-1.71;100;95538.84;;;;
2021/02/18 01:49:53;;;;;;;3;2.55;;;;;;;-1.71;100;95538.84;;;;
2021/02/18 01:50:55;;;;;;;3;2.55;;;;;;;-1.71;100;95538.84;;;;
2021/02/18 01:51:56;;;;;;;3;2.55;;;;;;;-1.71;100;95538.84;;;;
2021/02/18 01:52:56;;;;;;;3;2.55;;;;;;;-1.71;100;95538.84;;;;
2021/02/18 01:53:57;;;;;;;3;2.55;;;;;;;-1.71;100;95538.84;;;;
2021/02/18 01:54:58;;;;;;;3;2.55;;;;;;;-1.71;100;95538.84;;;;
2021/02/18 01:56:00;;;;;;;3;2.55;;;;;;;-1.71;100;95538.84;;;;
2021/02/18 01:57:01;;;;;;;3;2.55;;;;;;;-1.71;100;95538.84;;;;
2021/02/18 01:58:02;;;;;;;3.2;2.5;;;;;;;-1.75;100;95527.32;;;;
2021/02/18 01:59:05;;;;;;;3.2;2.5;;;;;;;-1.75;100;95527.32;;;;
2021/02/18 02:00:06;;;;;;;3.2;2.5;;;;;;;-1.75;100;95527.32;;;;
2021/02/18 02:01:09;;;;;;;3.2;2.5;;;;;;;-1.75;100;95527.32;;;;
2021/02/18 02:02:10;;;;;;;3.2;2.5;;;;;;;-1.75;100;95527.32;;;;
2021/02/18 02:03:12;;;;;;;3.2;2.5;;;;;;;-1.75;100;95527.32;;;;
2021/02/18 02:04:13;;;;;;;3.2;2.5;;;;;;;-1.75;100;95527.32;;;;
2021/02/18 02:05:13;;;;;;;3.2;2.5;;;;;;;-1.75;100;95527.32;;;;
2021/02/18 02:06:14;;;;;;;3.2;2.5;;;;;;;-1.75;100;95527.32;;;;
2021/02/18 02:07:15;;;;;;;3.2;2.5;;;;;;;-1.75;100;95527.32;;;;
2021/02/18 02:08:18;;;;;;;4.45;2.7;;;;;;;-1.77;100;95523.58;;;;
2021/02/18 02:09:18;;;;;;;4.45;2.7;;;;;;;-1.77;100;95523.58;;;;
2021/02/18 02:10:19;;;;;;;4.45;2.7;;;;;;;-1.77;100;95523.58;;;;
2021/02/18 02:11:20;;;;;;;4.45;2.7;;;;;;;-1.77;100;95523.58;;;;
2021/02/18 02:12:20;;;;;;;4.45;2.7;;;;;;;-1.77;100;95523.58;;;;
2021/02/18 02:13:22;;;;;;;4.45;2.7;;;;;;;-1.77;100;95523.58;;;;
2021/02/18 02:14:22;;;;;;;4.45;2.7;;;;;;;-1.77;100;95523.58;;;;
2021/02/18 02:15:25;;;;;;;4.45;2.7;;;;;;;-1.77;100;95523.58;;;;
2021/02/18 02:16:26;;;;;;;4.45;2.7;;;;;;;-1.77;100;95523.58;;;;
2021/02/18 02:17:26;;;;;;;4.45;2.7;;;;;;;-1.77;100;95523.58;;;;
2021/02/18 02:18:27;;;;;;;4.45;2.7;;;;;;;-1.77;100;95523.58;;;;
2021/02/18 02:19:28;;;;;;;4.199999;2.9;;;;;;;-1.79;100;95511.89;;;;
2021/02/18 02:20:31;;;;;;;4.199999;2.9;;;;;;;-1.79;100;95511.89;;;;
2021/02/18 02:21:31;;;;;;;4.199999;2.9;;;;;;;-1.79;100;95511.89;;;;
2021/02/18 02:22:32;;;;;;;4.199999;2.9;;;;;;;-1.79;100;95511.89;;;;
2021/02/18 02:23:33;;;;;;;4.199999;2.9;;;;;;;-1.79;100;95511.89;;;;
2021/02/18 02:24:38;;;;;;;4.199999;2.9;;;;;;;-1.79;100;95511.89;;;;
2021/02/18 02:25:41;;;;;;;4.199999;2.9;;;;;;;-1.79;100;95511.89;;;;
2021/02/18 02:26:43;;;;;;;4.199999;2.9;;;;;;;-1.79;100;95511.89;;;;
2021/02/18 02:27:44;;;;;;;4.199999;2.9;;;;;;;-1.79;100;95511.89;;;;
2021/02/18 02:28:46;;;;;;;4.199999;2.9;;;;;;;-1.79;100;95511.89;;;;
2021/02/18 02:29:48;;;;;;;3.65;2.8;;;;;;;-1.72;100;95512.92;;;;
2021/02/18 02:30:48;;;;;;;3.65;2.8;;;;;;;-1.72;100;95512.92;;;;
2021/02/18 02:31:49;;;;;;;3.65;2.8;;;;;;;-1.72;100;95512.92;;;;
2021/02/18 02:32:49;;;;;;;3.65;2.8;;;;;;;-1.72;100;95512.92;;;;
2021/02/18 02:33:54;;;;;;;3.65;2.8;;;;;;;-1.72;100;95512.92;;;;
2021/02/18 02:34:54;;;;;;;3.65;2.8;;;;;;;-1.72;100;95512.92;;;;
2021/02/18 02:35:55;;;;;;;3.65;2.8;;;;;;;-1.72;100;95512.92;;;;
2021/02/18 02:36:55;;;;;;;3.65;2.8;;;;;;;-1.72;100;95512.92;;;;
2021/02/18 02:37:56;;;;;;;3.65;2.8;;;;;;;-1.72;100;95512.92;;;;
2021/02/18 02:38:56;;;;;;;3.65;2.8;;;;;;;-1.72;100;95512.92;;;;
2021/02/18 02:39:57;;;;;;;3.7;2.95;;;;;;;-1.68;100;95508.92;;;;
2021/02/18 02:40:57;;;;;;;3.7;2.95;;;;;;;-1.68;100;95508.92;;;;
2021/02/18 02:41:58;;;;;;;3.7;2.95;;;;;;;-1.68;100;95508.92;;;;
2021/02/18 02:42:58;;;;;;;3.7;2.95;;;;;;;-1.68;100;95508.92;;;;
2021/02/18 02:43:59;;;;;;;3.7;2.95;;;;;;;-1.68;100;95508.92;;;;
2021/02/18 02:45:00;;;;;;;3.7;2.95;;;;;;;-1.68;100;95508.92;;;;
2021/02/18 02:46:02;;;;;;;3.7;2.95;;;;;;;-1.68;100;95508.92;;;;
2021/02/18 02:47:03;;;;;;;3.7;2.95;;;;;;;-1.68;100;95508.92;;;;
2021/02/18 02:48:04;;;;;;;3.7;2.95;;;;;;;-1.68;100;95508.92;;;;
2021/02/18 02:49:06;;;;;;;3.7;2.95;;;;;;;-1.68;100;95508.92;;;;
2021/02/18 02:50:06;;;;;;;3.7;2.95;;;;;;;-1.68;100;95508.92;;;;
2021/02/18 02:51:17;;;;;;;3.85;3;;;;;;;-1.74;100;95502.08;;;;
2021/02/18 02:52:17;;;;;;;3.85;3;;;;;;;-1.74;100;95502.08;;;;
2021/02/18 02:53:18;;;;;;;3.85;3;;;;;;;-1.74;100;95502.08;;;;
2021/02/18 02:54:18;;;;;;;3.85;3;;;;;;;-1.74;100;95502.08;;;;
2021/02/18 02:55:19;;;;;;;3.85;3;;;;;;;-1.74;100;95502.08;;;;
2021/02/18 02:56:19;;;;;;;3.85;3;;;;;;;-1.74;100;95502.08;;;;
2021/02/18 02:57:20;;;;;;;3.85;3;;;;;;;-1.74;100;95502.08;;;;
2021/02/18 02:58:20;;;;;;;3.85;3;;;;;;;-1.74;100;95502.08;;;;
2021/02/18 02:59:21;;;;;;;3.85;3;;;;;;;-1.74;100;95502.08;;;;
2021/02/18 03:00:21;;;;;;;3.85;3;;;;;;;-1.74;100;95502.08;;;;
2021/02/18 03:01:24;;;;;;;3.3;2.85;;;;;;;-1.8;100;95500.47;;;;
2021/02/18 03:02:25;;;;;;;3.3;2.85;;;;;;;-1.8;100;95500.47;;;;
2021/02/18 03:03:25;;;;;;;3.3;2.85;;;;;;;-1.8;100;95500.47;;;;
2021/02/18 03:04:26;;;;;;;3.3;2.85;;;;;;;-1.8;100;95500.47;;;;
2021/02/18 03:05:26;;;;;;;3.3;2.85;;;;;;;-1.8;100;95500.47;;;;
2021/02/18 03:06:27;;;;;;;3.3;2.85;;;;;;;-1.8;100;95500.47;;;;
2021/02/18 03:07:27;;;;;;;3.3;2.85;;;;;;;-1.8;100;95500.47;;;;
2021/02/18 03:08:28;;;;;;;3.3;2.85;;;;;;;-1.8;100;95500.47;;;;
2021/02/18 03:09:29;;;;;;;3.3;2.85;;;;;;;-1.8;100;95500.47;;;;
2021/02/18 03:10:29;;;;;;;3.3;2.85;;;;;;;-1.8;100;95500.47;;;;
2021/02/18 03:11:32;;;;;;;3.3;2.85;;;;;;;-1.8;100;95500.47;;;;
2021/02/18 03:12:32;;;;;;;3;2.35;;;;;;;-1.75;100;95486.78;;;;
2021/02/18 03:13:34;;;;;;;3;2.35;;;;;;;-1.75;100;95486.78;;;;
2021/02/18 03:14:34;;;;;;;3;2.35;;;;;;;-1.75;100;95486.78;;;;
2021/02/18 03:15:34;;;;;;;3;2.35;;;;;;;-1.75;100;95486.78;;;;
2021/02/18 03:16:36;;;;;;;3;2.35;;;;;;;-1.75;100;95486.78;;;;
2021/02/18 03:17:37;;;;;;;3;2.35;;;;;;;-1.75;100;95486.78;;;;
2021/02/18 03:18:38;;;;;;;3;2.35;;;;;;;-1.75;100;95486.78;;;;
2021/02/18 03:19:39;;;;;;;3;2.35;;;;;;;-1.75;100;95486.78;;;;
2021/02/18 03:20:39;;;;;;;3;2.35;;;;;;;-1.75;100;95486.78;;;;
2021/02/18 03:21:40;;;;;;;3;2.35;;;;;;;-1.75;100;95486.78;;;;
2021/02/18 03:22:40;;;;;;;3.95;2.8;;;;;;;-1.73;100;95472;;;;
2021/02/18 03:23:41;;;;;;;3.95;2.8;;;;;;;-1.73;100;95472;;;;
2021/02/18 03:24:41;;;;;;;3.95;2.8;;;;;;;-1.73;100;95472;;;;
2021/02/18 03:25:42;;;;;;;3.95;2.8;;;;;;;-1.73;100;95472;;;;
2021/02/18 03:26:43;;;;;;;3.95;2.8;;;;;;;-1.73;100;95472;;;;
2021/02/18 03:27:43;;;;;;;3.95;2.8;;;;;;;-1.73;100;95472;;;;
2021/02/18 03:28:44;;;;;;;3.95;2.8;;;;;;;-1.73;100;95472;;;;
2021/02/18 03:29:44;;;;;;;3.95;2.8;;;;;;;-1.73;100;95472;;;;
2021/02/18 03:30:45;;;;;;;3.95;2.8;;;;;;;-1.73;100;95472;;;;
2021/02/18 03:31:45;;;;;;;3.95;2.8;;;;;;;-1.73;100;95472;;;;
2021/02/18 03:32:46;;;;;;;3.95;2.8;;;;;;;-1.73;100;95472;;;;
2021/02/18 03:33:47;;;;;;;3.55;2.7;;;;;;;-1.81;100;95466.65;;;;
2021/02/18 03:34:47;;;;;;;3.55;2.7;;;;;;;-1.81;100;95466.65;;;;
2021/02/18 03:35:48;;;;;;;3.55;2.7;;;;;;;-1.81;100;95466.65;;;;
2021/02/18 03:36:48;;;;;;;3.55;2.7;;;;;;;-1.81;100;95466.65;;;;
2021/02/18 03:37:49;;;;;;;3.55;2.7;;;;;;;-1.81;100;95466.65;;;;
2021/02/18 03:38:50;;;;;;;3.55;2.7;;;;;;;-1.81;100;95466.65;;;;
2021/02/18 03:39:50;;;;;;;3.55;2.7;;;;;;;-1.81;100;95466.65;;;;
2021/02/18 03:40:51;;;;;;;3.55;2.7;;;;;;;-1.81;100;95466.65;;;;
2021/02/18 03:41:51;;;;;;;3.55;2.7;;;;;;;-1.81;100;95466.65;;;;
2021/02/18 03:42:52;;;;;;;3.55;2.7;;;;;;;-1.81;100;95466.65;;;;
2021/02/18 03:43:53;;;;;;;3.85;2.6;;;;;;;-1.86;100;95460.1;;;;
2021/02/18 03:44:53;;;;;;;3.85;2.6;;;;;;;-1.86;100;95460.1;;;;
2021/02/18 03:45:54;;;;;;;3.85;2.6;;;;;;;-1.86;100;95460.1;;;;
2021/02/18 03:46:54;;;;;;;3.85;2.6;;;;;;;-1.86;100;95460.1;;;;
2021/02/18 03:47:54;;;;;;;3.85;2.6;;;;;;;-1.86;100;95460.1;;;;
2021/02/18 03:48:55;;;;;;;3.85;2.6;;;;;;;-1.86;100;95460.1;;;;
2021/02/18 03:49:55;;;;;;;3.85;2.6;;;;;;;-1.86;100;95460.1;;;;
2021/02/18 03:50:56;;;;;;;3.85;2.6;;;;;;;-1.86;100;95460.1;;;;
2021/02/18 03:51:56;;;;;;;3.85;2.6;;;;;;;-1.86;100;95460.1;;;;
2021/02/18 03:52:57;;;;;;;3.85;2.6;;;;;;;-1.86;100;95460.1;;;;
2021/02/18 03:53:57;;;;;;;3.85;2.6;;;;;;;-1.86;100;95460.1;;;;
2021/02/18 03:54:58;;;;;;;2.9;2.4;;;;;;;-1.87;100;95451.42;;;;
2021/02/18 03:55:58;;;;;;;2.9;2.4;;;;;;;-1.87;100;95451.42;;;;
2021/02/18 03:56:59;;;;;;;2.9;2.4;;;;;;;-1.87;100;95451.42;;;;
2021/02/18 03:57:59;;;;;;;2.9;2.4;;;;;;;-1.87;100;95451.42;;;;
2021/02/18 03:58:59;;;;;;;2.9;2.4;;;;;;;-1.87;100;95451.42;;;;
2021/02/18 04:00:00;;;;;;;2.9;2.4;;;;;;;-1.87;100;95451.42;;;;
2021/02/18 04:01:01;;;;;;;2.9;2.4;;;;;;;-1.87;100;95451.42;;;;
2021/02/18 04:02:02;;;;;;;2.9;2.4;;;;;;;-1.87;100;95451.42;;;;
2021/02/18 04:03:02;;;;;;;2.9;2.4;;;;;;;-1.87;100;95451.42;;;;
2021/02/18 04:04:03;;;;;;;2.9;2.4;;;;;;;-1.87;100;95451.42;;;;
2021/02/18 04:05:04;;;;;;;2.9;2.4;;;;;;;-1.87;100;95451.42;;;;
2021/02/18 04:06:06;;;;;;;3.45;2.85;;;;;;;-1.8;100;95432.99;;;;
2021/02/18 04:07:07;;;;;;;3.45;2.85;;;;;;;-1.8;100;95432.99;;;;
2021/02/18 04:08:08;;;;;;;3.45;2.85;;;;;;;-1.8;100;95432.99;;;;
2021/02/18 04:09:08;;;;;;;3.45;2.85;;;;;;;-1.8;100;95432.99;;;;
2021/02/18 04:10:10;;;;;;;3.45;2.85;;;;;;;-1.8;100;95432.99;;;;
2021/02/18 04:11:11;;;;;;;3.45;2.85;;;;;;;-1.8;100;95432.99;;;;
2021/02/18 04:12:12;;;;;;;3.45;2.85;;;;;;;-1.8;100;95432.99;;;;
2021/02/18 04:13:13;;;;;;;3.45;2.85;;;;;;;-1.8;100;95432.99;;;;
2021/02/18 04:14:13;;;;;;;3.45;2.85;;;;;;;-1.8;100;95432.99;;;;
2021/02/18 04:15:14;;;;;;;3.45;2.85;;;;;;;-1.8;100;95432.99;;;;
2021/02/18 04:16:15;;;;;;;6.2;2.85;;;;;;;-1.79;100;95432.51;;;;
2021/02/18 04:17:16;;;;;;;6.2;2.85;;;;;;;-1.79;100;95432.51;;;;
2021/02/18 04:18:16;;;;;;;6.2;2.85;;;;;;;-1.79;100;95432.51;;;;
2021/02/18 04:19:17;;;;;;;6.2;2.85;;;;;;;-1.79;100;95432.51;;;;
2021/02/18 04:20:17;;;;;;;6.2;2.85;;;;;;;-1.79;100;95432.51;;;;
2021/02/18 04:21:18;;;;;;;6.2;2.85;;;;;;;-1.79;100;95432.51;;;;
2021/02/18 04:22:19;;;;;;;6.2;2.85;;;;;;;-1.79;100;95432.51;;;;
2021/02/18 04:23:19;;;;;;;6.2;2.85;;;;;;;-1.79;100;95432.51;;;;
2021/02/18 04:24:20;;;;;;;6.2;2.85;;;;;;;-1.79;100;95432.51;;;;
2021/02/18 04:25:20;;;;;;;6.2;2.85;;;;;;;-1.79;100;95432.51;;;;
2021/02/18 04:26:21;;;;;;;6.2;2.85;;;;;;;-1.79;100;95432.51;;;;
2021/02/18 04:27:21;;;;;;;4.4;2.75;;;;;;;-1.78;100;95423.6;;;;
2021/02/18 04:28:21;;;;;;;4.4;2.75;;;;;;;-1.78;100;95423.6;;;;
2021/02/18 04:29:22;;;;;;;4.4;2.75;;;;;;;-1.78;100;95423.6;;;;
2021/02/18 04:30:22;;;;;;;4.4;2.75;;;;;;;-1.78;100;95423.6;;;;
2021/02/18 04:31:23;;;;;;;4.4;2.75;;;;;;;-1.78;100;95423.6;;;;
2021/02/18 04:32:23;;;;;;;4.4;2.75;;;;;;;-1.78;100;95423.6;;;;
2021/02/18 04:33:24;;;;;;;4.4;2.75;;;;;;;-1.78;100;95423.6;;;;
2021/02/18 04:34:25;;;;;;;4.4;2.75;;;;;;;-1.78;100;95423.6;;;;
2021/02/18 04:35:25;;;;;;;4.4;2.75;;;;;;;-1.78;100;95423.6;;;;
2021/02/18 04:36:26;;;;;;;4.4;2.75;;;;;;;-1.78;100;95423.6;;;;
2021/02/18 04:37:26;;;;;;;5.6;2.9;;;;;;;-1.69;100;95414.2;;;;
2021/02/18 04:38:27;;;;;;;5.6;2.9;;;;;;;-1.69;100;95414.2;;;;
2021/02/18 04:39:27;;;;;;;5.6;2.9;;;;;;;-1.69;100;95414.2;;;;
2021/02/18 04:40:28;;;;;;;5.6;2.9;;;;;;;-1.69;100;95414.2;;;;
2021/02/18 04:41:28;;;;;;;5.6;2.9;;;;;;;-1.69;100;95414.2;;;;
2021/02/18 04:42:29;;;;;;;5.6;2.9;;;;;;;-1.69;100;95414.2;;;;
2021/02/18 04:43:29;;;;;;;5.6;2.9;;;;;;;-1.69;100;95414.2;;;;
2021/02/18 04:44:30;;;;;;;5.6;2.9;;;;;;;-1.69;100;95414.2;;;;
2021/02/18 04:45:30;;;;;;;5.6;2.9;;;;;;;-1.69;100;95414.2;;;;
2021/02/18 04:46:31;;;;;;;5.6;2.9;;;;;;;-1.69;100;95414.2;;;;
2021/02/18 04:47:31;;;;;;;5.6;2.9;;;;;;;-1.69;100;95414.2;;;;
2021/02/18 04:48:32;;;;;;;3.65;2.8;;;;;;;-1.59;100;95406.98;;;;
2021/02/18 04:49:32;;;;;;;3.65;2.8;;;;;;;-1.59;100;95406.98;;;;
2021/02/18 04:50:33;;;;;;;3.65;2.8;;;;;;;-1.59;100;95406.98;;;;
2021/02/18 04:51:34;;;;;;;3.65;2.8;;;;;;;-1.59;100;95406.98;;;;
2021/02/18 04:52:34;;;;;;;3.65;2.8;;;;;;;-1.59;100;95406.98;;;;
2021/02/18 04:53:35;;;;;;;3.65;2.8;;;;;;;-1.59;100;95406.98;;;;
2021/02/18 04:54:35;;;;;;;3.65;2.8;;;;;;;-1.59;100;95406.98;;;;
2021/02/18 04:55:35;;;;;;;3.65;2.8;;;;;;;-1.59;100;95406.98;;;;
2021/02/18 04:56:36;;;;;;;3.65;2.8;;;;;;;-1.59;100;95406.98;;;;
2021/02/18 04:57:36;;;;;;;3.65;2.8;;;;;;;-1.59;100;95406.98;;;;
2021/02/18 04:58:37;;;;;;;4.2;3.100001;;;;;;;-1.5;100;95404.28;;;;
2021/02/18 04:59:37;;;;;;;4.2;3.100001;;;;;;;-1.5;100;95404.28;;;;
2021/02/18 05:00:38;;;;;;;4.2;3.100001;;;;;;;-1.5;100;95404.28;;;;
2021/02/18 05:01:43;;;;;;;4.2;3.100001;;;;;;;-1.5;100;95404.28;;;;
2021/02/18 05:02:43;;;;;;;4.2;3.100001;;;;;;;-1.5;100;95404.28;;;;
2021/02/18 05:03:44;;;;;;;4.2;3.100001;;;;;;;-1.5;100;95404.28;;;;
2021/02/18 05:04:44;;;;;;;4.2;3.100001;;;;;;;-1.5;100;95404.28;;;;
2021/02/18 05:05:44;;;;;;;4.2;3.100001;;;;;;;-1.5;100;95404.28;;;;
2021/02/18 05:06:46;;;;;;;4.2;3.100001;;;;;;;-1.5;100;95404.28;;;;
2021/02/18 05:07:46;;;;;;;4.2;3.100001;;;;;;;-1.5;100;95404.28;;;;
2021/02/18 05:08:47;;;;;;;4.2;3.100001;;;;;;;-1.5;100;95404.28;;;;
2021/02/18 05:09:47;;;;;;;3.2;2.65;;;;;;;-1.49;100;95387.81;;;;
2021/02/18 05:10:48;;;;;;;3.2;2.65;;;;;;;-1.49;100;95387.81;;;;
2021/02/18 05:11:50;;;;;;;3.2;2.65;;;;;;;-1.49;100;95387.81;;;;
2021/02/18 05:12:51;;;;;;;3.2;2.65;;;;;;;-1.49;100;95387.81;;;;
2021/02/18 05:13:51;;;;;;;3.2;2.65;;;;;;;-1.49;100;95387.81;;;;
2021/02/18 05:14:52;;;;;;;3.2;2.65;;;;;;;-1.49;100;95387.81;;;;
2021/02/18 05:15:52;;;;;;;3.2;2.65;;;;;;;-1.49;100;95387.81;;;;
2021/02/18 05:16:53;;;;;;;3.2;2.65;;;;;;;-1.49;100;95387.81;;;;
2021/02/18 05:17:53;;;;;;;3.2;2.65;;;;;;;-1.49;100;95387.81;;;;
2021/02/18 05:18:54;;;;;;;3.2;2.65;;;;;;;-1.49;100;95387.81;;;;
2021/02/18 05:19:54;;;;;;;3.45;2.9;;;;;;;-1.47;100;95395.59;;;;
2021/02/18 05:20:55;;;;;;;3.45;2.9;;;;;;;-1.47;100;95395.59;;;;
2021/02/18 05:21:57;;;;;;;3.45;2.9;;;;;;;-1.47;100;95395.59;;;;
2021/02/18 05:22:57;;;;;;;3.45;2.9;;;;;;;-1.47;100;95395.59;;;;
2021/02/18 05:23:58;;;;;;;3.45;2.9;;;;;;;-1.47;100;95395.59;;;;
2021/02/18 05:24:58;;;;;;;3.45;2.9;;;;;;;-1.47;100;95395.59;;;;
2021/02/18 05:25:59;;;;;;;3.45;2.9;;;;;;;-1.47;100;95395.59;;;;
2021/02/18 05:26:59;;;;;;;3.45;2.9;;;;;;;-1.47;100;95395.59;;;;
2021/02/18 05:28:00;;;;;;;3.45;2.9;;;;;;;-1.47;100;95395.59;;;;
2021/02/18 05:29:02;;;;;;;3.45;2.9;;;;;;;-1.47;100;95395.59;;;;
2021/02/18 05:30:03;;;;;;;3.45;2.9;;;;;;;-1.47;100;95395.59;;;;
2021/02/18 05:31:05;;;;;;;3.6;2.6;;;;;;;-1.47;100;95392.53;;;;
2021/02/18 05:32:05;;;;;;;3.6;2.6;;;;;;;-1.47;100;95392.53;;;;
2021/02/18 05:33:06;;;;;;;3.6;2.6;;;;;;;-1.47;100;95392.53;;;;
2021/02/18 05:34:07;;;;;;;3.6;2.6;;;;;;;-1.47;100;95392.53;;;;
2021/02/18 05:35:08;;;;;;;3.6;2.6;;;;;;;-1.47;100;95392.53;;;;
2021/02/18 05:36:09;;;;;;;3.6;2.6;;;;;;;-1.47;100;95392.53;;;;
2021/02/18 05:37:09;;;;;;;3.6;2.6;;;;;;;-1.47;100;95392.53;;;;
2021/02/18 05:38:10;;;;;;;3.6;2.6;;;;;;;-1.47;100;95392.53;;;;
2021/02/18 05:39:15;;;;;;;3.6;2.6;;;;;;;-1.47;100;95392.53;;;;
2021/02/18 05:40:16;;;;;;;3.6;2.6;;;;;;;-1.47;100;95392.53;;;;
2021/02/18 05:41:17;;;;;;;3.9;2.4;;;;;;;-1.42;100;95400.33;;;;
2021/02/18 05:42:18;;;;;;;3.9;2.4;;;;;;;-1.42;100;95400.33;;;;
2021/02/18 05:43:19;;;;;;;3.9;2.4;;;;;;;-1.42;100;95400.33;;;;
2021/02/18 05:44:20;;;;;;;3.9;2.4;;;;;;;-1.42;100;95400.33;;;;
2021/02/18 05:45:21;;;;;;;3.9;2.4;;;;;;;-1.42;100;95400.33;;;;
2021/02/18 05:46:21;;;;;;;3.9;2.4;;;;;;;-1.42;100;95400.33;;;;
2021/02/18 05:47:22;;;;;;;3.9;2.4;;;;;;;-1.42;100;95400.33;;;;
2021/02/18 05:48:22;;;;;;;3.9;2.4;;;;;;;-1.42;100;95400.33;;;;
2021/02/18 05:49:23;;;;;;;3.9;2.4;;;;;;;-1.42;100;95400.33;;;;
2021/02/18 05:50:23;;;;;;;3.9;2.4;;;;;;;-1.42;100;95400.33;;;;
2021/02/18 05:51:24;;;;;;;3.9;2.4;;;;;;;-1.42;100;95400.33;;;;
2021/02/18 05:52:25;;;;;;;2.8;2.5;;;;;;;-1.5;100;95402.55;;;;
2021/02/18 05:53:27;;;;;;;2.8;2.5;;;;;;;-1.5;100;95402.55;;;;
2021/02/18 05:54:29;;;;;;;2.8;2.5;;;;;;;-1.5;100;95402.55;;;;
2021/02/18 05:55:31;;;;;;;2.8;2.5;;;;;;;-1.5;100;95402.55;;;;
2021/02/18 05:56:34;;;;;;;2.8;2.5;;;;;;;-1.5;100;95402.55;;;;
2021/02/18 05:57:36;;;;;;;2.8;2.5;;;;;;;-1.5;100;95402.55;;;;
2021/02/18 05:58:37;;;;;;;2.8;2.5;;;;;;;-1.5;100;95402.55;;;;
2021/02/18 05:59:40;;;;;;;2.8;2.5;;;;;;;-1.5;100;95402.55;;;;
2021/02/18 06:00:42;;;;;;;2.8;2.5;;;;;;;-1.5;100;95402.55;;;;
2021/02/18 06:01:49;;;;;;;2.8;2.5;;;;;;;-1.5;100;95402.55;;;;
2021/02/18 06:02:49;;;;;;;3.1;2.5;;;;;;;-1.64;100;95419.03;;;;
2021/02/18 06:03:59;;;;;;;3.1;2.5;;;;;;;-1.64;100;95419.03;;;;
2021/02/18 06:04:59;;;;;;;3.1;2.5;;;;;;;-1.64;100;95419.03;;;;
2021/02/18 06:06:00;;;;;;;3.1;2.5;;;;;;;-1.64;100;95419.03;;;;
2021/02/18 06:07:01;;;;;;;3.1;2.5;;;;;;;-1.64;100;95419.03;;;;
2021/02/18 06:08:01;;;;;;;3.1;2.5;;;;;;;-1.64;100;95419.03;;;;
2021/02/18 06:09:04;;;;;;;3.1;2.5;;;;;;;-1.64;100;95419.03;;;;
2021/02/18 06:10:05;;;;;;;3.1;2.5;;;;;;;-1.64;100;95419.03;;;;
2021/02/18 06:11:06;;;;;;;3.1;2.5;;;;;;;-1.64;100;95419.03;;;;
2021/02/18 06:12:11;;;;;;;3.1;2.5;;;;;;;-1.64;100;95419.03;;;;
2021/02/18 06:13:12;;;;;;;3.1;2.5;;;;;;;-1.64;100;95419.03;;;;
2021/02/18 06:14:22;;;;;;;3.55;2.85;;;;;;;-1.77;100;95401.85;;;;
2021/02/18 06:15:37;;;;;;;3.55;2.85;;;;;;;-1.77;100;95401.85;;;;
2021/02/18 06:16:37;;;;;;;3.55;2.85;;;;;;;-1.77;100;95401.85;;;;
2021/02/18 06:17:43;;;;;;;3.55;2.85;;;;;;;-1.77;100;95401.85;;;;
2021/02/18 06:18:43;;;;;;;3.55;2.85;;;;;;;-1.77;100;95401.85;;;;